createdAt,value
2023-02-27T00:01:58.028Z,102969.28
2023-02-27T00:04:26.839Z,102973.69
2023-02-27T00:06:55.414Z,102974.56
2023-02-27T00:09:23.947Z,102975.38
2023-02-27T00:11:52.349Z,102973.63
2023-02-27T00:14:22.702Z,102972.72
2023-02-27T00:16:51.421Z,102973.47
2023-02-27T00:19:19.880Z,102966.41
2023-02-27T00:21:48.311Z,102970.00
2023-02-27T00:24:16.965Z,102968.22
2023-02-27T00:26:45.520Z,102964.78
2023-02-27T00:29:14.156Z,102977.00
2023-02-27T00:31:44.217Z,102970.84
2023-02-27T00:34:12.769Z,102973.44
2023-02-27T00:36:41.286Z,102973.47
2023-02-27T00:39:09.646Z,102967.41
2023-02-27T00:41:38.262Z,102960.47
2023-02-27T00:44:07.030Z,102959.56
2023-02-27T00:46:35.952Z,102956.03
2023-02-27T00:49:05.983Z,102957.69
2023-02-27T00:51:34.508Z,102955.00
2023-02-27T00:54:04.330Z,102951.47
2023-02-27T00:56:32.734Z,102948.91
2023-02-27T00:59:01.163Z,102962.88
2023-02-27T01:01:29.734Z,102957.63
2023-02-27T01:03:58.403Z,102958.50
2023-02-27T01:06:28.559Z,102955.75
2023-02-27T01:08:57.385Z,102958.44
2023-02-27T01:11:26.086Z,102961.06
2023-02-27T01:13:54.747Z,102969.91
2023-02-27T01:16:23.401Z,102968.13
2023-02-27T01:18:51.698Z,102968.88
2023-02-27T01:21:20.288Z,102969.03
2023-02-27T01:23:50.460Z,102971.72
2023-02-27T01:26:19.090Z,102967.38
2023-02-27T01:28:50.316Z,102974.56
2023-02-27T01:31:19.119Z,102977.31
2023-02-27T01:33:49.237Z,102986.19
2023-02-27T01:36:17.937Z,102978.31
2023-02-27T01:38:46.451Z,102978.31
2023-02-27T01:41:16.225Z,102977.38
2023-02-27T01:43:59.473Z,102971.22
2023-02-27T01:46:29.168Z,102978.31
2023-02-27T01:49:01.708Z,102983.69
2023-02-27T01:51:34.606Z,102982.03
2023-02-27T01:54:06.069Z,102988.13
2023-02-27T01:56:36.640Z,102985.56
2023-02-27T01:59:08.763Z,102982.06
2023-02-27T02:01:37.744Z,102989.06
2023-02-27T02:04:11.904Z,102982.06
2023-02-27T02:06:42.436Z,102981.16
2023-02-27T02:09:13.222Z,102981.97
2023-02-27T02:11:43.836Z,102982.75
2023-02-27T02:14:12.756Z,102981.75
2023-02-27T02:17:14.006Z,102985.22
2023-02-27T02:20:01.494Z,102975.63
2023-02-27T02:23:17.317Z,102976.41
2023-02-27T02:26:18.704Z,102985.94
2023-02-27T02:29:17.945Z,102978.91
2023-02-27T02:32:24.638Z,102983.31
2023-02-27T02:35:24.998Z,102979.03
2023-02-27T02:38:32.375Z,102984.34
2023-02-27T02:41:12.357Z,102979.09
2023-02-27T02:43:50.892Z,102976.47
2023-02-27T02:46:31.670Z,102967.81
2023-02-27T02:49:10.357Z,102972.25
2023-02-27T02:51:45.097Z,102961.75
2023-02-27T02:54:19.357Z,102976.75
2023-02-27T02:56:55.698Z,102978.53
2023-02-27T02:59:31.771Z,102986.56
2023-02-27T03:02:05.486Z,102978.78
2023-02-27T03:04:41.227Z,102980.66
2023-02-27T03:07:16.653Z,102986.03
2023-02-27T03:09:49.714Z,102980.78
2023-02-27T03:12:25.088Z,102973.72
2023-02-27T03:14:58.207Z,102979.75
2023-02-27T03:17:32.562Z,102971.84
2023-02-27T03:20:06.177Z,102978.84
2023-02-27T03:22:40.612Z,102975.38
2023-02-27T03:25:12.369Z,102986.75
2023-02-27T03:27:46.449Z,102983.31
2023-02-27T03:30:21.257Z,102989.38
2023-02-27T03:32:57.601Z,102988.44
2023-02-27T03:35:35.080Z,102986.69
2023-02-27T03:38:12.397Z,102978.00
2023-02-27T03:40:51.312Z,102984.00
2023-02-27T03:43:31.305Z,102994.47
2023-02-27T03:46:06.095Z,102986.63
2023-02-27T03:48:35.461Z,102989.16
2023-02-27T03:51:04.177Z,102984.69
2023-02-27T03:53:39.468Z,102986.50
2023-02-27T03:56:11.120Z,102988.16
2023-02-27T03:58:41.661Z,102982.06
2023-02-27T04:01:10.395Z,102973.13
2023-02-27T04:03:45.463Z,102976.53
2023-02-27T04:06:31.406Z,102976.56
2023-02-27T04:09:08.816Z,102976.59
2023-02-27T04:11:49.863Z,102963.44
2023-02-27T04:14:34.093Z,102971.25
2023-02-27T04:17:15.490Z,102963.44
2023-02-27T04:20:08.770Z,102966.09
2023-02-27T04:22:41.124Z,102955.72
2023-02-27T04:25:39.181Z,102957.59
2023-02-27T04:28:18.937Z,102963.75
2023-02-27T04:31:06.124Z,102975.19
2023-02-27T04:33:44.581Z,102970.03
2023-02-27T04:36:18.984Z,102971.75
2023-02-27T04:38:52.855Z,102977.00
2023-02-27T04:41:26.142Z,102977.91
2023-02-27T04:43:56.589Z,102981.41
2023-02-27T04:46:29.724Z,102981.41
2023-02-27T04:49:05.775Z,102977.88
2023-02-27T04:51:39.300Z,102980.53
2023-02-27T04:54:21.002Z,102982.34
2023-02-27T04:57:02.399Z,102978.94
2023-02-27T04:59:35.949Z,102988.56
2023-02-27T05:02:13.895Z,102989.50
2023-02-27T05:04:51.639Z,102984.38
2023-02-27T05:07:24.409Z,102993.09
2023-02-27T05:09:59.889Z,102989.59
2023-02-27T05:12:34.841Z,102992.22
2023-02-27T05:15:20.122Z,102995.69
2023-02-27T05:17:57.182Z,102993.91
2023-02-27T05:20:31.241Z,102988.66
2023-02-27T05:23:08.571Z,102996.50
2023-02-27T05:25:55.566Z,102998.28
2023-02-27T05:28:30.904Z,102995.66
2023-02-27T05:31:06.723Z,102998.31
2023-02-27T05:33:50.626Z,102993.91
2023-02-27T05:36:24.886Z,102992.13
2023-02-27T05:39:00.949Z,102994.72
2023-02-27T05:41:35.006Z,103002.63
2023-02-27T05:44:07.783Z,103009.53
2023-02-27T05:46:40.288Z,102994.75
2023-02-27T05:49:19.056Z,102991.22
2023-02-27T05:51:53.465Z,102992.00
2023-02-27T05:54:31.732Z,102993.78
2023-02-27T05:57:04.092Z,102987.66
2023-02-27T05:59:43.771Z,102983.31
2023-02-27T06:02:13.957Z,102984.16
2023-02-27T06:04:45.526Z,102985.94
2023-02-27T06:07:17.083Z,102991.19
2023-02-27T06:09:47.496Z,102982.38
2023-02-27T06:12:21.128Z,102984.88
2023-02-27T06:14:52.087Z,102981.34
2023-02-27T06:17:20.970Z,102980.44
2023-02-27T06:19:52.306Z,102983.97
2023-02-27T06:22:21.151Z,102972.66
2023-02-27T06:24:49.799Z,102965.56
2023-02-27T06:27:18.644Z,102970.81
2023-02-27T06:29:48.473Z,102970.84
2023-02-27T06:32:17.162Z,102974.38
2023-02-27T06:34:45.787Z,102977.81
2023-02-27T06:37:17.832Z,102975.25
2023-02-27T06:39:48.210Z,102982.25
2023-02-27T06:42:17.583Z,102983.16
2023-02-27T06:44:55.610Z,102990.94
2023-02-27T06:47:28.389Z,102990.94
2023-02-27T06:49:56.866Z,102990.03
2023-02-27T06:52:33.009Z,102989.22
2023-02-27T06:55:10.377Z,102993.63
2023-02-27T06:57:39.221Z,102991.88
2023-02-27T07:00:11.933Z,103000.53
2023-02-27T07:02:41.405Z,103005.75
2023-02-27T07:05:13.145Z,103002.28
2023-02-27T07:07:44.347Z,103004.91
2023-02-27T07:10:15.445Z,103007.56
2023-02-27T07:12:46.333Z,103001.41
2023-02-27T07:15:17.045Z,103006.66
2023-02-27T07:17:47.852Z,103011.84
2023-02-27T07:20:16.176Z,103003.13
2023-02-27T07:22:47.469Z,103008.38
2023-02-27T07:25:15.978Z,103014.47
2023-02-27T07:27:46.765Z,103013.59
2023-02-27T07:30:17.255Z,103014.44
2023-02-27T07:32:47.491Z,103015.28
2023-02-27T07:35:17.241Z,103026.66
2023-02-27T07:37:51.416Z,103024.03
2023-02-27T07:40:21.818Z,103026.66
2023-02-27T07:42:52.974Z,103024.75
2023-02-27T07:45:22.624Z,103029.19
2023-02-27T07:47:51.310Z,103029.09
2023-02-27T07:50:21.207Z,103030.09
2023-02-27T07:52:53.693Z,103030.94
2023-02-27T07:55:22.398Z,103031.84
2023-02-27T07:57:51.097Z,103037.09
2023-02-27T08:00:22.334Z,103042.34
2023-02-27T08:02:58.753Z,103044.06
2023-02-27T08:05:27.445Z,103045.81
2023-02-27T08:07:57.824Z,103046.72
2023-02-27T08:10:27.643Z,103045.94
2023-02-27T08:12:56.443Z,103052.94
2023-02-27T08:15:25.308Z,103048.59
2023-02-27T08:17:53.760Z,103048.53
2023-02-27T08:20:24.241Z,103051.09
2023-02-27T08:22:53.441Z,103049.31
2023-02-27T08:25:23.718Z,103056.34
2023-02-27T08:27:54.377Z,103059.88
2023-02-27T08:30:23.233Z,103058.94
2023-02-27T08:32:57.977Z,103061.59
2023-02-27T08:35:27.597Z,103062.41
2023-02-27T08:37:57.357Z,103064.16
2023-02-27T08:40:29.651Z,103066.72
2023-02-27T08:42:59.674Z,103063.28
2023-02-27T08:45:30.764Z,103065.03
2023-02-27T08:48:02.558Z,103064.09
2023-02-27T08:50:32.155Z,103073.69
2023-02-27T08:53:01.783Z,103071.91
2023-02-27T08:55:31.952Z,103068.44
2023-02-27T08:58:00.432Z,103071.09
2023-02-27T09:00:32.674Z,103058.75
2023-02-27T09:03:07.746Z,103070.13
2023-02-27T09:05:37.760Z,103070.16
2023-02-27T09:08:13.072Z,103072.03
2023-02-27T09:10:43.504Z,103076.38
2023-02-27T09:13:18.376Z,103087.69
2023-02-27T09:15:52.884Z,103095.44
2023-02-27T09:18:28.175Z,103090.22
2023-02-27T09:20:57.529Z,103099.03
2023-02-27T09:23:26.545Z,103097.28
2023-02-27T09:25:57.548Z,103094.66
2023-02-27T09:28:26.300Z,103100.72
2023-02-27T09:30:57.749Z,103101.53
2023-02-27T09:33:29.156Z,103093.56
2023-02-27T09:35:57.756Z,103107.56
2023-02-27T09:38:27.779Z,103106.75
2023-02-27T09:40:59.839Z,103103.13
2023-02-27T09:43:39.064Z,103102.13
2023-02-27T09:46:08.796Z,103102.09
2023-02-27T09:48:43.779Z,103103.72
2023-02-27T09:51:12.759Z,103093.94
2023-02-27T09:53:45.347Z,103096.28
2023-02-27T09:56:23.866Z,103100.44
2023-02-27T09:58:59.477Z,103099.19
2023-02-27T10:01:32.354Z,103096.25
2023-02-27T10:04:22.182Z,103092.63
2023-02-27T10:06:58.282Z,103090.84
2023-02-27T10:09:52.267Z,103088.13
2023-02-27T10:12:36.938Z,103098.03
2023-02-27T10:15:15.786Z,103102.06
2023-02-27T10:17:51.560Z,103111.03
2023-02-27T10:20:30.708Z,103120.88
2023-02-27T10:23:03.410Z,103116.97
2023-02-27T10:25:40.864Z,103115.97
2023-02-27T10:28:14.762Z,103113.22
2023-02-27T10:30:49.019Z,103112.91
2023-02-27T10:33:23.799Z,103107.00
2023-02-27T10:35:54.093Z,103102.28
2023-02-27T10:38:33.520Z,103102.91
2023-02-27T10:41:03.732Z,103096.38
2023-02-27T10:43:33.991Z,103096.41
2023-02-27T10:46:03.331Z,103106.00
2023-02-27T10:48:33.922Z,103112.53
2023-02-27T10:51:27.698Z,103113.84
2023-02-27T10:54:18.011Z,103124.66
2023-02-27T10:56:50.914Z,103134.72
2023-02-27T10:59:23.418Z,103129.69
2023-02-27T11:01:55.285Z,103128.03
2023-02-27T11:04:34.995Z,103116.75
2023-02-27T11:07:06.844Z,103116.81
2023-02-27T11:09:37.385Z,103115.38
2023-02-27T11:12:22.406Z,103119.81
2023-02-27T11:14:54.841Z,103127.31
2023-02-27T11:17:26.582Z,103118.47
2023-02-27T11:19:55.020Z,103123.75
2023-02-27T11:22:25.715Z,103127.38
2023-02-27T11:25:11.071Z,103126.72
2023-02-27T11:27:40.041Z,103131.44
2023-02-27T11:30:27.272Z,103116.97
2023-02-27T11:32:57.032Z,103112.47
2023-02-27T11:35:28.730Z,103105.53
2023-02-27T11:38:00.644Z,103106.72
2023-02-27T11:40:33.554Z,103114.75
2023-02-27T11:43:07.365Z,103109.38
2023-02-27T11:46:04.215Z,103109.56
2023-02-27T11:48:34.421Z,103123.47
2023-02-27T11:51:26.798Z,103130.22
2023-02-27T11:54:17.747Z,103136.13
2023-02-27T11:56:49.561Z,103135.53
2023-02-27T11:59:34.446Z,103131.31
2023-02-27T12:02:14.985Z,103121.66
2023-02-27T12:04:49.871Z,103115.97
2023-02-27T12:07:24.891Z,103116.63
2023-02-27T12:10:01.590Z,103100.69
2023-02-27T12:12:36.695Z,103094.72
2023-02-27T12:15:18.149Z,103102.72
2023-02-27T12:17:53.591Z,103099.53
2023-02-27T12:20:31.444Z,103102.41
2023-02-27T12:23:04.396Z,103102.56
2023-02-27T12:25:39.566Z,103094.03
2023-02-27T12:28:22.330Z,103092.38
2023-02-27T12:31:06.425Z,103094.41
2023-02-27T12:33:43.936Z,103094.03
2023-02-27T12:36:14.430Z,103092.63
2023-02-27T12:38:43.994Z,103086.53
2023-02-27T12:41:33.662Z,103087.34
2023-02-27T12:44:22.653Z,103079.69
2023-02-27T12:47:00.127Z,103085.50
2023-02-27T12:49:44.054Z,103091.13
2023-02-27T12:52:26.192Z,103081.78
2023-02-27T12:55:07.454Z,103085.28
2023-02-27T12:58:06.553Z,103096.16
2023-02-27T13:00:47.737Z,103089.34
2023-02-27T13:03:22.957Z,103091.88
2023-02-27T13:06:02.137Z,103095.31
2023-02-27T13:08:52.808Z,103103.44
2023-02-27T13:11:28.077Z,103105.03
2023-02-27T13:14:03.172Z,103106.97
2023-02-27T13:16:39.115Z,103112.75
2023-02-27T13:19:18.277Z,103103.78
2023-02-27T13:21:56.038Z,103100.94
2023-02-27T13:24:33.569Z,103087.97
2023-02-27T13:27:06.180Z,103085.91
2023-02-27T13:29:40.067Z,103085.97
2023-02-27T13:32:42.652Z,103085.47
2023-02-27T13:35:26.943Z,103089.47
2023-02-27T13:38:05.673Z,103090.19
2023-02-27T13:40:39.415Z,103094.75
2023-02-27T13:43:31.150Z,103089.97
2023-02-27T13:46:03.639Z,103090.25
2023-02-27T13:48:43.205Z,103098.94
2023-02-27T13:51:32.961Z,103107.94
2023-02-27T13:54:36.857Z,103111.28
2023-02-27T13:57:26.116Z,103111.72
2023-02-27T14:00:09.577Z,103110.59
2023-02-27T14:02:58.656Z,103106.53
2023-02-27T14:05:35.346Z,103114.00
2023-02-27T14:08:18.314Z,103110.13
2023-02-27T14:11:00.365Z,103116.41
2023-02-27T14:14:04.034Z,103108.63
2023-02-27T14:17:08.760Z,103102.66
2023-02-27T14:19:59.832Z,103089.63
2023-02-27T14:23:10.390Z,103085.97
2023-02-27T14:25:43.405Z,103081.59
2023-02-27T14:41:45.548Z,103083.78
2023-02-27T14:44:20.670Z,103090.81
2023-02-27T14:46:49.285Z,103093.19
2023-02-27T14:49:24.618Z,103095.19
2023-02-27T14:51:54.198Z,103089.63
2023-02-27T14:54:24.461Z,103088.91
2023-02-27T14:56:59.530Z,103089.25
2023-02-27T14:59:31.334Z,103101.00
2023-02-27T15:02:02.273Z,103105.47
2023-02-27T15:04:34.193Z,103100.41
2023-02-27T15:07:04.561Z,103097.41
2023-02-27T15:09:37.502Z,103098.06
2023-02-27T15:12:07.928Z,103093.22
2023-02-27T15:14:39.013Z,103092.75
2023-02-27T15:17:18.296Z,103079.09
2023-02-27T15:19:51.388Z,103077.94
2023-02-27T15:22:38.054Z,103074.09
2023-02-27T15:25:09.361Z,103063.75
2023-02-27T15:27:39.775Z,103066.03
2023-02-27T15:30:10.431Z,103060.78
2023-02-27T15:32:44.057Z,103064.56
2023-02-27T15:35:19.085Z,103061.00
2023-02-27T15:37:53.409Z,103069.44
2023-02-27T15:40:25.820Z,103057.97
2023-02-27T15:43:03.228Z,103062.50
2023-02-27T15:45:35.009Z,103064.75
2023-02-27T15:48:04.951Z,103066.63
2023-02-27T15:50:37.794Z,103063.72
2023-02-27T15:53:14.040Z,103070.91
2023-02-27T15:55:45.037Z,103074.13
2023-02-27T15:58:24.631Z,103076.81
2023-02-27T16:01:07.537Z,103072.19
2023-02-27T16:03:39.961Z,103085.19
2023-02-27T16:06:13.025Z,103089.53
2023-02-27T16:08:46.219Z,103082.56
2023-02-27T16:11:20.823Z,103072.63
2023-02-27T16:13:51.455Z,103073.59
2023-02-27T16:16:35.407Z,103079.31
2023-02-27T16:19:17.504Z,103074.22
2023-02-27T16:22:08.101Z,103077.00
2023-02-27T16:24:39.046Z,103072.50
2023-02-27T16:27:08.490Z,103069.72
2023-02-27T16:29:44.534Z,103067.16
2023-02-27T16:32:24.045Z,103069.03
2023-02-27T16:34:53.757Z,103070.75
2023-02-27T16:37:24.867Z,103061.69
2023-02-27T16:39:54.884Z,103061.69
2023-02-27T16:42:26.476Z,103066.16
2023-02-27T16:44:58.162Z,103070.34
2023-02-27T16:47:29.290Z,103062.31
2023-02-27T16:49:59.392Z,103069.78
2023-02-27T16:52:29.998Z,103069.88
2023-02-27T16:54:58.944Z,103072.50
2023-02-27T16:57:28.022Z,103072.56
2023-02-27T16:59:59.172Z,103075.06
2023-02-27T17:02:27.964Z,103079.53
2023-02-27T17:04:56.557Z,103079.59
2023-02-27T17:07:25.441Z,103075.47
2023-02-27T17:09:54.075Z,103079.16
2023-02-27T17:12:22.767Z,103077.19
2023-02-27T17:14:51.306Z,103078.19
2023-02-27T17:17:21.538Z,103073.09
2023-02-27T17:19:50.706Z,103080.97
2023-02-27T17:22:19.828Z,103077.44
2023-02-27T17:24:48.569Z,103070.41
2023-02-27T17:27:18.489Z,103069.56
2023-02-27T17:29:47.342Z,103067.00
2023-02-27T17:32:16.281Z,103064.34
2023-02-27T17:34:46.738Z,103061.63
2023-02-27T17:37:15.631Z,103059.75
2023-02-27T17:39:44.756Z,103064.19
2023-02-27T17:42:18.586Z,103064.25
2023-02-27T17:44:48.073Z,103066.06
2023-02-27T17:47:19.642Z,103061.91
2023-02-27T17:49:49.742Z,103069.81
2023-02-27T17:52:18.970Z,103071.47
2023-02-27T17:54:48.329Z,103074.88
2023-02-27T17:57:16.829Z,103074.75
2023-02-27T17:59:45.491Z,103070.41
2023-02-27T18:02:15.878Z,103082.03
2023-02-27T18:04:45.926Z,103088.97
2023-02-27T18:07:16.381Z,103084.66
2023-02-27T18:09:47.692Z,103086.56
2023-02-27T18:12:17.274Z,103095.31
2023-02-27T18:14:45.883Z,103096.06
2023-02-27T18:17:14.382Z,103104.22
2023-02-27T18:19:44.164Z,103097.16
2023-02-27T18:22:15.723Z,103104.13
2023-02-27T18:24:46.150Z,103101.41
2023-02-27T18:27:14.919Z,103096.97
2023-02-27T18:29:44.345Z,103099.59
2023-02-27T18:32:13.243Z,103112.66
2023-02-27T18:34:43.932Z,103108.22
2023-02-27T18:37:12.837Z,103106.47
2023-02-27T18:39:43.168Z,103106.56
2023-02-27T18:42:14.445Z,103103.06
2023-02-27T18:44:43.077Z,103103.88
2023-02-27T18:47:13.763Z,103104.03
2023-02-27T18:49:44.266Z,103103.94
2023-02-27T18:52:13.143Z,103112.72
2023-02-27T18:54:42.932Z,103110.03
2023-02-27T18:57:11.695Z,103106.56
2023-02-27T18:59:43.126Z,103103.75
2023-02-27T19:02:16.104Z,103116.06
2023-02-27T19:04:44.886Z,103117.78
2023-02-27T19:07:14.540Z,103116.19
2023-02-27T19:09:43.468Z,103118.78
2023-02-27T19:12:14.118Z,103122.25
2023-02-27T19:14:44.661Z,103122.31
2023-02-27T19:17:21.368Z,103125.84
2023-02-27T19:19:51.362Z,103120.50
2023-02-27T19:22:21.260Z,103119.59
2023-02-27T19:24:51.330Z,103124.94
2023-02-27T19:27:29.422Z,103124.84
2023-02-27T19:30:01.837Z,103131.88
2023-02-27T19:32:34.997Z,103123.97
2023-02-27T19:35:14.383Z,103121.34
2023-02-27T19:37:43.693Z,103130.03
2023-02-27T19:40:13.791Z,103129.34
2023-02-27T19:42:45.011Z,103127.63
2023-02-27T19:45:15.438Z,103131.94
2023-02-27T19:47:53.974Z,103140.69
2023-02-27T19:50:23.707Z,103137.97
2023-02-27T19:52:52.605Z,103142.25
2023-02-27T19:55:23.299Z,103132.63
2023-02-27T19:57:52.997Z,103136.94
2023-02-27T20:00:24.450Z,103142.19
2023-02-27T20:02:53.695Z,103142.19
2023-02-27T20:05:22.759Z,103146.63
2023-02-27T20:07:52.045Z,103146.56
2023-02-27T20:10:20.707Z,103150.97
2023-02-27T20:12:52.394Z,103145.75
2023-02-27T20:15:23.865Z,103148.34
2023-02-27T20:17:56.657Z,103153.63
2023-02-27T20:20:25.272Z,103157.16
2023-02-27T20:22:54.857Z,103153.63
2023-02-27T20:25:23.652Z,103158.03
2023-02-27T20:27:52.274Z,103159.75
2023-02-27T20:30:20.983Z,103160.59
2023-02-27T20:32:49.453Z,103161.41
2023-02-27T20:35:22.186Z,103170.34
2023-02-27T20:37:50.999Z,103168.53
2023-02-27T20:40:20.147Z,103172.09
2023-02-27T20:42:48.767Z,103172.91
2023-02-27T20:45:18.478Z,103181.75
2023-02-27T20:47:47.139Z,103180.00
2023-02-27T20:50:15.582Z,103177.34
2023-02-27T20:52:45.820Z,103173.81
2023-02-27T20:55:15.337Z,103184.28
2023-02-27T20:57:43.944Z,103176.41
2023-02-27T21:00:13.982Z,103182.56
2023-02-27T21:02:45.216Z,103187.91
2023-02-27T21:05:14.837Z,103194.00
2023-02-27T21:07:46.099Z,103193.09
2023-02-27T21:10:15.515Z,103195.78
2023-02-27T21:12:58.181Z,103196.69
2023-02-27T21:15:33.201Z,103191.41
2023-02-27T21:18:05.111Z,103191.31
2023-02-27T21:20:36.605Z,103194.78
2023-02-27T21:23:09.207Z,103187.75
2023-02-27T21:25:54.996Z,103189.53
2023-02-27T21:28:47.526Z,103184.28
2023-02-27T21:31:45.451Z,103193.91
2023-02-27T21:34:18.143Z,103192.16
2023-02-27T21:36:49.071Z,103187.72
2023-02-27T21:39:23.094Z,103188.66
2023-02-27T21:41:52.280Z,103192.16
2023-02-27T21:44:26.206Z,103188.69
2023-02-27T21:46:57.238Z,103192.13
2023-02-27T21:49:27.622Z,103183.50
2023-02-27T21:51:59.406Z,103184.31
2023-02-27T21:54:36.071Z,103178.19
2023-02-27T21:57:16.060Z,103187.75
2023-02-27T21:59:52.201Z,103187.78
2023-02-27T22:02:31.781Z,103189.53
2023-02-27T22:05:18.864Z,103193.94
2023-02-27T22:07:54.170Z,103197.41
2023-02-27T22:10:51.695Z,103200.03
2023-02-27T22:13:22.799Z,103199.19
2023-02-27T22:15:54.941Z,103192.97
2023-02-27T22:18:24.404Z,103198.31
2023-02-27T22:20:53.357Z,103193.03
2023-02-27T22:23:23.653Z,103204.41
2023-02-27T22:26:03.335Z,103204.44
2023-02-27T22:28:33.302Z,103203.53
2023-02-27T22:31:13.874Z,103209.69
2023-02-27T22:33:47.868Z,103199.22
2023-02-27T22:36:21.374Z,103200.91
2023-02-27T22:38:52.179Z,103200.09
2023-02-27T22:41:28.933Z,103197.38
2023-02-27T22:43:57.794Z,103207.00
2023-02-27T22:46:29.241Z,103202.66
2023-02-27T22:48:58.602Z,103205.28
2023-02-27T22:51:29.271Z,103205.25
2023-02-27T22:54:00.685Z,103207.00
2023-02-27T22:56:33.075Z,103209.59
2023-02-27T22:59:02.611Z,103204.41
2023-02-27T23:01:38.625Z,103203.59
2023-02-27T23:04:11.939Z,103214.06
2023-02-27T23:06:43.077Z,103200.94
2023-02-27T23:09:14.744Z,103206.16
2023-02-27T23:11:46.223Z,103220.19
2023-02-27T23:14:15.879Z,103214.94
2023-02-27T23:16:46.031Z,103209.63
2023-02-27T23:19:17.697Z,103220.09
2023-02-27T23:21:46.644Z,103214.94
2023-02-27T23:24:20.957Z,103214.03
2023-02-27T23:26:54.386Z,103216.66
2023-02-27T23:29:24.259Z,103213.97
2023-02-27T23:31:55.378Z,103215.72
2023-02-27T23:34:23.980Z,103221.81
2023-02-27T23:36:56.223Z,103219.19
2023-02-27T23:39:25.393Z,103213.84
2023-02-27T23:41:57.198Z,103217.34
2023-02-27T23:44:28.163Z,103216.44
2023-02-27T23:46:56.638Z,103223.50
2023-02-27T23:49:26.384Z,103215.66
2023-02-27T23:51:54.806Z,103223.53
2023-02-27T23:54:23.526Z,103227.03
2023-02-27T23:57:01.883Z,103227.03
2023-02-27T23:59:31.558Z,103236.72
